createdAt,value
2022-08-23T00:00:12.981Z,99953.28
2022-08-23T00:02:43.505Z,99948.63
2022-08-23T00:05:12.469Z,99964.75
2022-08-23T00:07:41.428Z,99969.50
2022-08-23T00:10:12.447Z,99980.03
2022-08-23T00:12:41.216Z,99974.72
2022-08-23T00:15:12.066Z,99969.97
2022-08-23T00:17:42.369Z,99977.56
2022-08-23T00:20:17.329Z,99980.84
2022-08-23T00:22:45.718Z,99982.84
2022-08-23T00:25:15.457Z,99984.50
2022-08-23T00:27:44.225Z,99984.84
2022-08-23T00:30:14.960Z,99984.84
2022-08-23T00:32:43.876Z,99983.56
2022-08-23T00:35:26.253Z,99979.56
2022-08-23T00:38:32.072Z,99972.97
2022-08-23T00:40:47.436Z,99978.91
2022-08-23T00:43:35.918Z,99976.28
2022-08-23T00:46:38.016Z,99968.06
2022-08-23T00:49:10.131Z,99967.25
2022-08-23T00:51:53.280Z,99965.50
2022-08-23T00:54:23.437Z,99967.53
2022-08-23T00:56:52.866Z,99970.34
2022-08-23T00:59:21.046Z,99963.91
2022-08-23T01:01:49.350Z,99966.81
2022-08-23T01:04:18.514Z,99964.19
2022-08-23T01:06:55.818Z,99971.38
2022-08-23T01:09:24.432Z,99961.53
2022-08-23T01:11:57.726Z,99967.13
2022-08-23T01:14:31.027Z,99964.19
2022-08-23T01:17:05.671Z,99967.00
2022-08-23T01:19:37.378Z,99958.59
2022-08-23T01:22:13.633Z,99963.53
2022-08-23T01:25:08.191Z,99953.91
2022-08-23T01:27:32.226Z,99969.59
2022-08-23T01:30:01.582Z,99963.25
2022-08-23T01:32:30.046Z,99950.66
2022-08-23T01:34:58.066Z,99958.91
2022-08-23T01:37:26.151Z,99959.69
2022-08-23T01:39:55.537Z,99958.91
2022-08-23T01:42:23.542Z,99963.34
2022-08-23T01:44:52.049Z,99958.25
2022-08-23T01:47:20.491Z,99970.66
2022-08-23T01:49:48.591Z,99970.47
2022-08-23T01:52:17.365Z,99981.56
2022-08-23T01:54:45.617Z,99978.28
2022-08-23T01:57:15.401Z,99977.84
2022-08-23T01:59:45.551Z,99982.00
2022-08-23T02:02:13.556Z,99973.25
2022-08-23T02:04:41.561Z,99968.88
2022-08-23T02:07:09.732Z,99976.25
2022-08-23T02:09:38.084Z,99972.41
2022-08-23T02:12:07.554Z,99975.25
2022-08-23T02:14:42.170Z,99975.03
2022-08-23T02:17:10.446Z,99976.22
2022-08-23T02:19:39.602Z,99980.59
2022-08-23T02:22:09.449Z,99987.19
2022-08-23T02:24:41.954Z,99987.19
2022-08-23T02:27:10.238Z,99988.63
2022-08-23T02:29:40.509Z,99992.72
2022-08-23T02:32:14.025Z,100000.66
2022-08-23T02:34:43.895Z,100014.03
2022-08-23T02:37:13.914Z,100008.16
2022-08-23T02:39:43.661Z,100020.44
2022-08-23T02:42:12.635Z,100023.59
2022-08-23T02:44:42.266Z,100026.34
2022-08-23T02:47:12.070Z,100026.56
2022-08-23T02:49:40.113Z,100027.59
2022-08-23T02:52:08.599Z,100026.63
2022-08-23T02:54:37.782Z,100026.63
2022-08-23T02:57:06.471Z,100024.31
2022-08-23T02:59:35.490Z,100017.53
2022-08-23T03:02:05.065Z,100030.53
2022-08-23T03:04:33.155Z,100019.31
2022-08-23T03:07:01.358Z,100034.28
2022-08-23T03:09:29.529Z,100033.28
2022-08-23T03:11:57.555Z,100037.84
2022-08-23T03:14:27.615Z,100039.72
2022-08-23T03:16:57.445Z,100038.41
2022-08-23T03:19:27.838Z,100041.16
2022-08-23T03:21:56.023Z,100041.47
2022-08-23T03:24:24.263Z,100042.94
2022-08-23T03:26:52.457Z,100041.75
2022-08-23T03:29:20.734Z,100043.41
2022-08-23T03:31:48.750Z,100043.94
2022-08-23T03:34:16.956Z,100053.81
2022-08-23T03:36:46.546Z,100051.66
2022-08-23T03:39:15.059Z,100057.41
2022-08-23T03:41:43.511Z,100061.06
2022-08-23T03:44:11.561Z,100057.50
2022-08-23T03:46:39.676Z,100063.75
2022-08-23T03:49:08.213Z,100072.94
2022-08-23T03:51:36.531Z,100071.63
2022-08-23T03:54:07.457Z,100080.53
2022-08-23T03:56:38.838Z,100076.88
2022-08-23T03:59:13.166Z,100079.47
2022-08-23T04:01:41.496Z,100081.75
2022-08-23T04:04:09.577Z,100085.34
2022-08-23T04:06:38.581Z,100033.50
2022-08-23T04:09:08.020Z,100088.56
2022-08-23T04:11:36.144Z,100086.94
2022-08-23T04:14:04.639Z,100090.16
2022-08-23T04:16:37.527Z,100081.56
2022-08-23T04:19:06.126Z,100093.13
2022-08-23T04:21:39.310Z,100083.53
2022-08-23T04:24:09.021Z,100090.75
2022-08-23T04:26:37.242Z,100083.75
2022-08-23T04:29:05.968Z,100087.69
2022-08-23T04:31:37.149Z,100091.06
2022-08-23T04:34:08.479Z,100087.75
2022-08-23T04:36:39.811Z,100086.03
2022-08-23T04:39:10.318Z,100082.38
2022-08-23T04:41:55.579Z,100090.63
2022-08-23T04:44:23.785Z,100082.88
2022-08-23T04:46:52.173Z,100094.00
2022-08-23T04:49:24.499Z,100090.28
2022-08-23T04:51:53.837Z,100089.63
2022-08-23T04:54:24.627Z,100076.03
2022-08-23T04:56:53.078Z,100086.06
2022-08-23T04:59:21.354Z,100089.56
2022-08-23T05:01:50.375Z,100081.97
2022-08-23T05:04:19.190Z,100078.91
2022-08-23T05:06:47.222Z,100081.88
2022-08-23T05:09:20.313Z,100081.25
2022-08-23T05:11:50.077Z,100083.88
2022-08-23T05:14:18.234Z,100087.97
2022-08-23T05:16:46.387Z,100079.94
2022-08-23T05:19:14.738Z,100084.34
2022-08-23T05:21:42.873Z,100078.16
2022-08-23T05:24:13.533Z,100096.19
2022-08-23T05:26:42.819Z,100090.09
2022-08-23T05:29:12.362Z,100095.69
2022-08-23T05:31:40.516Z,100096.72
2022-08-23T05:34:08.670Z,100097.88
2022-08-23T05:36:37.829Z,100099.94
2022-08-23T05:39:21.168Z,100106.53
2022-08-23T05:42:00.866Z,100098.66
2022-08-23T05:44:30.639Z,100103.72
2022-08-23T05:47:04.638Z,100105.06
2022-08-23T05:49:38.672Z,100098.28
2022-08-23T05:52:07.506Z,100099.16
2022-08-23T05:54:36.662Z,100103.53
2022-08-23T05:57:05.427Z,100096.41
2022-08-23T05:59:34.950Z,100084.75
2022-08-23T06:02:03.180Z,100097.88
2022-08-23T06:04:31.496Z,100103.66
2022-08-23T06:06:59.559Z,100110.63
2022-08-23T06:09:28.076Z,100103.63
2022-08-23T06:11:56.111Z,100111.47
2022-08-23T06:14:24.244Z,100108.81
2022-08-23T06:16:56.083Z,100117.00
2022-08-23T06:19:25.073Z,100104.53
2022-08-23T06:21:53.813Z,100119.16
2022-08-23T06:24:22.067Z,100118.72
2022-08-23T06:26:50.246Z,100119.16
2022-08-23T06:29:20.626Z,100118.56
2022-08-23T06:31:52.023Z,100116.69
2022-08-23T06:34:24.136Z,100127.75
2022-08-23T06:36:55.329Z,100120.16
2022-08-23T06:39:27.322Z,100119.06
2022-08-23T06:42:00.850Z,100118.03
2022-08-23T06:44:30.002Z,100112.94
2022-08-23T06:46:58.347Z,100120.06
2022-08-23T06:49:28.831Z,100128.69
2022-08-23T06:52:00.156Z,100125.16
2022-08-23T06:54:32.866Z,100134.91
2022-08-23T06:57:02.382Z,100137.34
2022-08-23T06:59:31.299Z,100135.78
2022-08-23T07:02:01.700Z,100138.94
2022-08-23T07:04:33.202Z,100129.97
2022-08-23T07:07:02.576Z,100140.75
2022-08-23T07:09:31.606Z,100137.19
2022-08-23T07:12:00.296Z,100143.41
2022-08-23T07:14:29.452Z,100136.03
2022-08-23T07:17:01.363Z,100138.13
2022-08-23T07:19:34.161Z,100143.13
2022-08-23T07:22:04.422Z,100133.69
2022-08-23T07:24:33.766Z,100141.09
2022-08-23T07:27:06.531Z,100136.25
2022-08-23T07:29:34.904Z,100141.66
2022-08-23T07:32:03.100Z,100120.28
2022-08-23T07:34:33.238Z,100132.84
2022-08-23T07:37:01.725Z,100135.13
2022-08-23T07:39:31.841Z,100137.28
2022-08-23T07:42:01.319Z,100129.06
2022-08-23T07:44:44.754Z,100106.94
2022-08-23T07:47:14.576Z,100122.56
2022-08-23T07:49:43.999Z,100126.84
2022-08-23T07:52:12.170Z,100140.31
2022-08-23T07:54:40.740Z,100136.31
2022-08-23T07:57:13.872Z,100136.78
2022-08-23T07:59:42.094Z,100143.22
2022-08-23T08:02:10.380Z,100145.69
2022-08-23T08:04:38.969Z,100086.81
2022-08-23T08:07:19.240Z,100140.56
2022-08-23T08:09:48.913Z,100149.53
2022-08-23T08:12:17.677Z,100140.34
2022-08-23T08:14:47.054Z,100148.94
2022-08-23T08:17:15.175Z,100148.63
2022-08-23T08:19:43.205Z,100137.41
2022-08-23T08:22:13.240Z,100126.13
2022-08-23T08:24:41.778Z,100138.00
2022-08-23T08:27:09.845Z,100136.16
2022-08-23T08:29:37.985Z,100142.31
2022-08-23T08:32:06.332Z,100144.03
2022-08-23T08:34:34.417Z,100140.47
2022-08-23T08:37:02.643Z,100140.22
2022-08-23T08:39:34.064Z,100141.16
2022-08-23T08:42:19.254Z,100135.91
2022-08-23T08:44:50.998Z,100140.88
2022-08-23T08:47:30.832Z,100141.34
2022-08-23T08:50:04.011Z,100136.25
2022-08-23T08:52:36.898Z,100142.25
2022-08-23T08:55:08.841Z,100128.59
2022-08-23T08:57:41.200Z,100137.03
2022-08-23T09:00:13.715Z,100141.63
2022-08-23T09:02:42.930Z,100135.81
2022-08-23T09:05:14.813Z,100130.31
2022-08-23T09:07:53.510Z,100134.38
2022-08-23T09:10:52.159Z,100137.06
2022-08-23T09:13:56.126Z,100128.53
2022-08-23T09:16:39.521Z,100119.16
2022-08-23T09:19:08.136Z,100132.25
2022-08-23T09:21:45.180Z,100136.97
2022-08-23T09:24:14.428Z,100130.50
2022-08-23T09:26:46.000Z,100122.66
2022-08-23T09:29:21.106Z,100123.31
2022-08-23T09:31:52.758Z,100130.88
2022-08-23T09:34:24.182Z,100125.72
2022-08-23T09:36:52.500Z,100128.75
2022-08-23T09:39:31.222Z,100124.91
2022-08-23T09:42:01.742Z,100129.63
2022-08-23T09:44:37.450Z,100128.84
2022-08-23T09:47:13.042Z,100119.97
2022-08-23T09:49:43.786Z,100116.44
2022-08-23T09:52:22.147Z,100098.41
2022-08-23T09:55:03.176Z,100102.16
2022-08-23T09:57:35.717Z,100092.66
2022-08-23T10:00:23.432Z,100080.16
2022-08-23T10:02:51.640Z,100099.78
2022-08-23T10:05:22.064Z,100096.69
2022-08-23T10:07:57.078Z,100092.47
2022-08-23T10:10:32.937Z,100095.28
2022-08-23T10:13:03.472Z,100097.88
2022-08-23T10:15:49.463Z,100097.16
2022-08-23T10:18:26.303Z,100097.00
2022-08-23T10:21:03.094Z,100102.56
2022-08-23T10:23:44.909Z,100103.41
2022-08-23T10:26:23.183Z,100100.66
2022-08-23T10:29:17.508Z,100101.88
2022-08-23T10:31:59.182Z,100106.03
2022-08-23T10:34:40.977Z,100094.28
2022-08-23T10:37:24.219Z,100107.00
2022-08-23T10:40:04.009Z,100094.78
2022-08-23T10:42:40.372Z,100102.47
2022-08-23T10:45:17.331Z,100101.31
2022-08-23T10:48:00.135Z,100101.63
2022-08-23T10:50:33.547Z,100115.16
2022-08-23T10:53:09.526Z,100105.22
2022-08-23T10:55:55.156Z,100110.34
2022-08-23T10:58:29.240Z,100113.44
2022-08-23T11:01:02.013Z,100097.16
2022-08-23T11:03:33.235Z,100097.81
2022-08-23T11:06:28.877Z,100103.09
2022-08-23T11:09:03.710Z,100100.00
2022-08-23T11:11:43.345Z,100096.09
2022-08-23T11:14:14.275Z,100100.91
2022-08-23T11:16:48.750Z,100096.94
2022-08-23T11:19:51.677Z,100114.94
2022-08-23T11:22:21.183Z,100103.84
2022-08-23T11:24:58.957Z,100105.72
2022-08-23T11:27:32.362Z,100101.00
2022-08-23T11:30:38.993Z,100091.72
2022-08-23T11:33:17.871Z,100093.50
2022-08-23T11:35:50.278Z,100094.63
2022-08-23T11:38:39.169Z,100101.66
2022-08-23T11:41:23.625Z,100089.25
2022-08-23T11:44:25.886Z,100081.53
2022-08-23T11:47:04.786Z,100079.13
2022-08-23T11:50:08.768Z,100074.09
2022-08-23T11:53:03.761Z,100070.00
2022-08-23T11:55:54.625Z,100073.63
2022-08-23T11:58:31.986Z,100070.78
2022-08-23T12:01:12.150Z,100069.19
2022-08-23T12:03:57.011Z,100066.47
2022-08-23T12:06:41.572Z,100071.00
2022-08-23T12:09:37.305Z,100068.31
2022-08-23T12:12:24.388Z,100059.16
2022-08-23T12:14:55.930Z,100049.53
2022-08-23T12:17:57.064Z,100049.53
2022-08-23T12:20:32.737Z,100047.41
2022-08-23T12:23:15.337Z,100051.66
2022-08-23T12:25:45.166Z,100052.94
2022-08-23T12:28:32.705Z,100043.63
2022-08-23T12:31:13.427Z,100032.25
2022-08-23T12:33:52.417Z,100028.38
2022-08-23T12:36:30.322Z,100027.22
2022-08-23T12:39:04.969Z,100024.06
2022-08-23T12:41:45.549Z,100032.28
2022-08-23T12:44:19.603Z,100035.94
2022-08-23T12:46:48.407Z,100033.41
2022-08-23T12:49:26.202Z,100023.88
2022-08-23T12:51:57.094Z,100026.41
2022-08-23T12:54:37.803Z,100034.56
2022-08-23T12:57:12.019Z,100023.94
2022-08-23T12:59:48.587Z,100030.13
2022-08-23T13:02:29.483Z,100015.19
2022-08-23T13:05:02.982Z,100028.84
2022-08-23T13:07:32.446Z,100021.75
2022-08-23T13:10:00.744Z,100026.47
2022-08-23T13:12:30.431Z,100032.31
2022-08-23T13:15:01.785Z,100013.78
2022-08-23T13:17:36.964Z,100028.75
2022-08-23T13:20:22.129Z,100028.75
2022-08-23T13:23:02.641Z,100023.66
2022-08-23T13:25:34.416Z,100023.03
2022-08-23T13:28:07.463Z,100023.84
2022-08-23T13:30:38.237Z,100014.97
2022-08-23T13:33:21.142Z,100006.28
2022-08-23T13:35:50.695Z,100005.88
2022-08-23T13:38:24.715Z,100008.03
2022-08-23T13:41:02.184Z,100017.88
2022-08-23T13:43:37.394Z,100013.13
2022-08-23T13:46:18.125Z,100009.97
2022-08-23T13:48:55.802Z,100010.06
2022-08-23T13:51:31.533Z,100001.78
2022-08-23T13:54:03.356Z,99997.75
2022-08-23T13:56:35.743Z,99988.22
2022-08-23T13:59:20.906Z,99997.09
2022-08-23T14:01:49.406Z,100013.69
2022-08-23T14:04:17.907Z,100049.28
2022-08-23T14:06:49.047Z,100088.72
2022-08-23T14:09:17.770Z,100089.84
2022-08-23T14:11:48.305Z,100086.03
2022-08-23T14:14:18.874Z,100115.44
2022-08-23T14:16:47.045Z,100143.97
2022-08-23T14:19:16.769Z,100174.47
2022-08-23T14:22:03.530Z,100193.44
2022-08-23T14:24:32.171Z,100209.69
2022-08-23T14:27:01.662Z,100177.28
2022-08-23T14:29:31.685Z,100166.63
2022-08-23T14:32:01.115Z,100152.00
2022-08-23T14:34:30.558Z,100149.41
2022-08-23T14:39:48.724Z,100099.31
2022-08-23T14:42:20.635Z,100091.84
2022-08-23T14:44:51.151Z,100060.34
2022-08-23T14:47:20.266Z,100123.41
2022-08-23T14:49:53.279Z,100120.25
2022-08-23T14:52:22.317Z,100240.34
2022-08-23T14:54:51.038Z,100253.34
2022-08-23T14:57:19.935Z,100212.28
2022-08-23T14:59:50.323Z,100185.09
2022-08-23T15:02:24.249Z,100188.59
2022-08-23T15:04:52.826Z,100188.88
2022-08-23T15:07:21.439Z,100173.88
2022-08-23T15:09:51.741Z,100170.56
2022-08-23T15:15:14.751Z,100128.47
2022-08-23T15:17:48.712Z,100132.22
2022-08-23T15:20:17.565Z,100118.50
2022-08-23T15:22:55.476Z,100097.34
2022-08-23T15:25:25.362Z,100095.28
2022-08-23T15:27:54.243Z,100109.91
2022-08-23T15:30:25.205Z,100120.88
2022-08-23T15:32:56.667Z,100116.59
2022-08-23T15:35:26.800Z,100099.53
2022-08-23T15:37:56.511Z,100093.47
2022-08-23T15:40:26.199Z,100093.63
2022-08-23T15:42:54.496Z,100083.16
2022-08-23T15:45:24.430Z,100081.06
2022-08-23T15:47:55.073Z,100076.03
2022-08-23T15:50:26.869Z,100076.41
2022-08-23T15:52:55.899Z,100073.78
2022-08-23T15:55:24.309Z,100088.00
2022-08-23T15:57:54.608Z,100080.34
2022-08-23T16:00:25.156Z,100082.53
2022-08-23T16:03:18.944Z,100086.00
2022-08-23T16:05:44.619Z,100078.69
2022-08-23T16:08:18.683Z,100069.63
2022-08-23T16:10:47.234Z,100071.78
2022-08-23T16:13:15.657Z,100080.53
2022-08-23T16:15:45.502Z,100084.25
2022-08-23T16:18:14.086Z,100092.72
2022-08-23T16:20:42.735Z,100098.41
2022-08-23T16:23:11.156Z,100091.47
2022-08-23T16:25:41.551Z,100087.13
2022-08-23T16:28:09.990Z,100083.56
2022-08-23T16:30:38.257Z,100087.84
2022-08-23T16:33:08.257Z,100086.03
2022-08-23T16:35:36.372Z,100095.50
2022-08-23T16:38:04.925Z,100089.22
2022-08-23T16:40:33.518Z,100080.50
2022-08-23T16:43:01.933Z,100064.19
2022-08-23T16:45:30.213Z,100081.56
2022-08-23T16:47:58.342Z,100114.78
2022-08-23T16:50:29.169Z,100145.13
2022-08-23T16:52:57.298Z,100163.94
2022-08-23T16:55:25.653Z,100182.41
2022-08-23T16:57:54.093Z,100201.84
2022-08-23T17:00:22.388Z,100206.22
2022-08-23T17:02:50.851Z,100237.84
2022-08-23T17:05:20.991Z,100262.31
2022-08-23T17:07:54.176Z,100288.56
2022-08-23T17:10:23.628Z,100263.25
2022-08-23T17:12:54.299Z,100254.88
2022-08-23T17:15:26.589Z,100206.59
2022-08-23T17:17:56.232Z,100208.00
2022-08-23T17:20:27.604Z,100098.88
2022-08-23T17:22:58.599Z,100113.72
2022-08-23T17:25:27.590Z,100154.56
2022-08-23T17:27:56.974Z,100124.34
2022-08-23T17:30:26.669Z,100162.38
2022-08-23T17:32:55.271Z,100158.81
2022-08-23T17:35:33.952Z,100131.50
2022-08-23T17:38:04.878Z,100101.69
2022-08-23T17:40:36.801Z,100093.47
2022-08-23T17:43:06.381Z,100102.00
2022-08-23T17:45:40.750Z,100121.75
2022-08-23T17:48:09.072Z,100159.47
2022-08-23T17:50:38.219Z,100196.47
2022-08-23T17:53:08.614Z,100224.53
2022-08-23T17:55:37.575Z,100263.03
2022-08-23T17:58:06.688Z,100272.78
2022-08-23T18:00:36.450Z,100265.19
2022-08-23T18:03:06.066Z,100275.06
2022-08-23T18:05:35.597Z,100256.59
2022-08-23T18:08:04.057Z,100247.34
2022-08-23T18:10:34.026Z,100236.78
2022-08-23T18:13:02.481Z,100236.06
2022-08-23T18:15:31.481Z,100246.22
2022-08-23T18:18:01.121Z,100252.22
2022-08-23T18:20:30.546Z,100250.88
2022-08-23T18:22:59.746Z,100243.88
2022-08-23T18:25:28.250Z,100234.13
2022-08-23T18:28:09.906Z,100238.91
2022-08-23T18:30:47.025Z,100239.63
2022-08-23T18:33:16.108Z,100239.16
2022-08-23T18:35:47.586Z,100258.72
2022-08-23T18:38:16.504Z,100272.34
2022-08-23T18:40:49.494Z,100265.72
2022-08-23T18:43:22.493Z,100267.38
2022-08-23T18:45:56.487Z,100274.50
2022-08-23T18:48:25.409Z,100262.00
2022-08-23T18:50:53.740Z,100261.31
2022-08-23T18:53:22.360Z,100267.22
2022-08-23T18:55:51.070Z,100255.09
2022-08-23T18:58:22.913Z,100240.88
2022-08-23T19:00:52.828Z,100255.28
2022-08-23T19:03:21.366Z,100261.16
2022-08-23T19:05:49.702Z,100245.97
2022-08-23T19:08:18.287Z,100246.34
2022-08-23T19:10:47.497Z,100244.84
2022-08-23T19:13:16.474Z,100233.72
2022-08-23T19:15:45.888Z,100241.97
2022-08-23T19:18:14.695Z,100234.09
2022-08-23T19:20:43.606Z,100236.75
2022-08-23T19:23:11.631Z,100234.56
2022-08-23T19:25:40.967Z,100223.53
2022-08-23T19:28:09.078Z,100219.72
2022-08-23T19:30:38.694Z,100215.59
2022-08-23T19:33:09.921Z,100217.22
2022-08-23T19:35:38.022Z,100213.53
2022-08-23T19:38:06.422Z,100220.28
2022-08-23T19:40:37.908Z,100215.34
2022-08-23T19:43:06.892Z,100219.66
2022-08-23T19:45:35.072Z,100233.22
2022-08-23T19:48:03.788Z,100235.75
2022-08-23T19:50:33.943Z,100237.34
2022-08-23T19:53:03.427Z,100239.00
2022-08-23T19:55:32.941Z,100254.97
2022-08-23T19:58:01.588Z,100263.09
2022-08-23T20:00:31.706Z,100276.19
2022-08-23T20:02:59.951Z,100275.34
2022-08-23T20:05:28.847Z,100294.84
2022-08-23T20:07:58.447Z,100295.16
2022-08-23T20:10:26.667Z,100299.75
2022-08-23T20:12:54.989Z,100307.97
2022-08-23T20:15:23.400Z,100315.25
2022-08-23T20:17:52.439Z,100316.06
2022-08-23T20:20:20.631Z,100320.38
2022-08-23T20:23:06.505Z,100319.19
2022-08-23T20:25:36.818Z,100333.72
2022-08-23T20:28:08.478Z,100340.72
2022-08-23T20:30:37.679Z,100332.53
2022-08-23T20:33:06.015Z,100332.50
2022-08-23T20:35:34.294Z,100312.69
2022-08-23T20:38:04.597Z,100322.56
2022-08-23T20:40:33.021Z,100309.91
2022-08-23T20:43:02.956Z,100316.00
2022-08-23T20:45:31.446Z,100331.13
2022-08-23T20:47:59.694Z,100334.75
2022-08-23T20:50:27.836Z,100322.00
2022-08-23T20:52:56.621Z,100326.13
2022-08-23T20:55:25.747Z,100325.81
2022-08-23T20:57:54.358Z,100319.53
2022-08-23T21:00:23.971Z,100338.22
2022-08-23T21:02:52.270Z,100333.28
2022-08-23T21:05:20.645Z,100315.25
2022-08-23T21:07:49.178Z,100326.50
2022-08-23T21:10:17.687Z,100334.13
2022-08-23T21:12:45.782Z,100332.47
2022-08-23T21:15:13.891Z,100329.81
2022-08-23T21:17:43.427Z,100323.66
2022-08-23T21:20:15.901Z,100331.78
2022-08-23T21:22:44.401Z,100331.78
2022-08-23T21:25:12.988Z,100336.41
2022-08-23T21:27:41.515Z,100337.41
2022-08-23T21:30:11.076Z,100342.03
2022-08-23T21:32:39.191Z,100345.66
2022-08-23T21:35:10.057Z,100346.66
2022-08-23T21:37:38.436Z,100330.78
2022-08-23T21:40:07.773Z,100329.47
2022-08-23T21:42:36.173Z,100307.66
2022-08-23T21:45:04.530Z,100316.06
2022-08-23T21:47:32.814Z,100325.81
2022-08-23T21:50:00.938Z,100323.84
2022-08-23T21:52:30.746Z,100301.38
2022-08-23T21:54:59.198Z,100291.13
2022-08-23T21:57:27.809Z,100296.97
2022-08-23T21:59:55.974Z,100311.72
2022-08-23T22:02:24.206Z,100318.00
2022-08-23T22:04:52.599Z,100330.72
2022-08-23T22:07:21.061Z,100303.63
2022-08-23T22:09:51.850Z,100309.72
2022-08-23T22:12:24.485Z,100304.41
2022-08-23T22:14:53.213Z,100320.09
2022-08-23T22:17:21.753Z,100314.63
2022-08-23T22:19:50.039Z,100313.81
2022-08-23T22:22:18.821Z,100322.56
2022-08-23T22:24:47.323Z,100322.72
2022-08-23T22:27:17.132Z,100326.19
2022-08-23T22:29:46.586Z,100326.19
2022-08-23T22:32:15.783Z,100318.94
2022-08-23T22:34:43.925Z,100310.72
2022-08-23T22:37:12.329Z,100303.16
2022-08-23T22:39:40.850Z,100305.81
2022-08-23T22:42:09.896Z,100300.84
2022-08-23T22:44:40.442Z,100322.28
2022-08-23T22:47:08.634Z,100330.53
2022-08-23T22:49:36.728Z,100322.28
2022-08-23T22:52:06.029Z,100315.38
2022-08-23T22:54:34.459Z,100301.97
2022-08-23T22:57:02.677Z,100301.44
2022-08-23T22:59:32.980Z,100307.06
2022-08-23T23:02:04.316Z,100304.59
2022-08-23T23:04:34.005Z,100302.94
2022-08-23T23:07:03.057Z,100302.16
2022-08-23T23:09:31.245Z,100316.66
2022-08-23T23:11:59.570Z,100315.03
2022-08-23T23:14:27.816Z,100322.28
2022-08-23T23:16:56.223Z,100327.25
2022-08-23T23:19:43.193Z,100335.69
2022-08-23T23:22:14.472Z,100332.22
2022-08-23T23:24:42.764Z,100352.03
2022-08-23T23:27:10.912Z,100379.94
2022-08-23T23:29:39.142Z,100378.00
2022-08-23T23:32:07.852Z,100383.91
2022-08-23T23:34:38.289Z,100396.00
2022-08-23T23:37:06.491Z,100403.25
2022-08-23T23:39:34.913Z,100407.53
2022-08-23T23:42:03.333Z,100416.31
2022-08-23T23:44:32.149Z,100416.78
2022-08-23T23:47:01.760Z,100428.19
2022-08-23T23:49:32.515Z,100423.38
2022-08-23T23:52:04.295Z,100432.47
2022-08-23T23:54:36.750Z,100429.31
2022-08-23T23:57:05.096Z,100429.47
2022-08-23T23:59:34.940Z,100412.16
